createdAt,value
2022-10-16T00:01:16.419Z,5.47
2022-10-16T00:03:44.109Z,10.00
2022-10-16T00:06:11.606Z,6.22
2022-10-16T00:08:38.645Z,5.68
2022-10-16T00:11:10.058Z,6.43
2022-10-16T00:13:38.110Z,6.53
2022-10-16T00:16:05.093Z,5.05
2022-10-16T00:18:31.928Z,6.93
2022-10-16T00:21:09.275Z,7.57
2022-10-16T00:23:36.746Z,10.00
2022-10-16T00:26:06.225Z,5.97
2022-10-16T00:28:33.084Z,1.92
2022-10-16T00:30:59.822Z,5.75
2022-10-16T00:33:26.198Z,1.73
2022-10-16T00:35:52.618Z,7.00
2022-10-16T00:38:19.026Z,3.83
2022-10-16T00:40:45.473Z,4.65
2022-10-16T00:43:34.866Z,10.43
2022-10-16T00:46:03.207Z,1.83
2022-10-16T00:48:30.054Z,4.60
2022-10-16T00:50:57.740Z,5.13
2022-10-16T00:53:26.088Z,5.70
2022-10-16T00:55:52.992Z,4.13
2022-10-16T00:58:19.413Z,5.82
2022-10-16T01:00:45.844Z,4.95
2022-10-16T01:03:30.654Z,6.30
2022-10-16T01:06:09.257Z,3.85
2022-10-16T01:09:01.129Z,1.80
2022-10-16T01:11:42.657Z,6.47
2022-10-16T01:14:22.877Z,5.03
2022-10-16T01:17:14.930Z,5.28
2022-10-16T01:20:05.875Z,1.50
2022-10-16T01:22:42.137Z,2.38
2022-10-16T01:25:17.793Z,3.92
2022-10-16T01:27:46.759Z,4.22
2022-10-16T01:30:22.293Z,7.47
2022-10-16T01:33:04.529Z,2.15
2022-10-16T01:35:37.003Z,1.63
2022-10-16T01:38:22.189Z,2.72
2022-10-16T01:40:53.150Z,3.88
2022-10-16T01:43:28.293Z,4.47
2022-10-16T01:45:55.722Z,1.27
2022-10-16T01:48:24.755Z,2.97
2022-10-16T01:51:07.759Z,13.32
2022-10-16T01:53:34.576Z,8.40
2022-10-16T01:56:03.086Z,6.38
2022-10-16T01:58:35.450Z,8.05
2022-10-16T02:01:05.282Z,7.30
2022-10-16T02:03:34.283Z,2.53
2022-10-16T02:06:00.927Z,4.95
2022-10-16T02:08:30.530Z,7.05
2022-10-16T02:10:58.382Z,3.63
2022-10-16T02:13:32.337Z,4.57
2022-10-16T02:15:58.792Z,2.90
2022-10-16T02:18:30.026Z,2.00
2022-10-16T02:20:59.205Z,1.50
2022-10-16T02:23:36.840Z,6.13
2022-10-16T02:26:07.872Z,2.30
2022-10-16T02:28:45.131Z,5.57
2022-10-16T02:31:17.324Z,3.55
2022-10-16T02:33:46.742Z,1.70
2022-10-16T02:36:13.893Z,2.63
2022-10-16T02:38:41.216Z,3.15
2022-10-16T02:41:07.727Z,1.10
2022-10-16T02:43:34.828Z,6.60
2022-10-16T02:46:01.662Z,3.38
2022-10-16T02:48:28.054Z,4.35
2022-10-16T02:50:54.429Z,5.43
2022-10-16T02:53:20.843Z,1.77
2022-10-16T02:55:47.213Z,0.90
2022-10-16T02:58:13.558Z,3.75
2022-10-16T03:00:40.148Z,2.97
2022-10-16T03:03:06.598Z,2.65
2022-10-16T03:05:32.994Z,5.97
2022-10-16T03:08:01.554Z,2.00
2022-10-16T03:10:28.380Z,3.63
2022-10-16T03:12:54.729Z,4.85
2022-10-16T03:15:21.167Z,7.32
2022-10-16T03:17:47.568Z,4.65
2022-10-16T03:20:14.246Z,3.75
2022-10-16T03:22:40.633Z,4.80
2022-10-16T03:25:07.545Z,4.10
2022-10-16T03:27:33.913Z,7.57
2022-10-16T03:30:00.277Z,5.40
2022-10-16T03:32:26.762Z,3.83
2022-10-16T03:34:55.138Z,1.05
2022-10-16T03:37:21.532Z,4.18
2022-10-16T03:39:47.910Z,1.65
2022-10-16T03:42:14.302Z,3.90
2022-10-16T03:44:40.678Z,2.72
2022-10-16T03:47:07.058Z,4.57
2022-10-16T03:49:33.438Z,5.65
2022-10-16T03:51:59.814Z,3.80
2022-10-16T03:54:26.243Z,2.20
2022-10-16T03:56:52.594Z,3.55
2022-10-16T03:59:18.979Z,4.82
2022-10-16T04:01:45.405Z,1.50
2022-10-16T04:04:11.818Z,2.45
2022-10-16T04:06:38.309Z,0.70
2022-10-16T04:09:04.825Z,2.78
2022-10-16T04:11:31.208Z,5.40
2022-10-16T04:13:57.560Z,0.77
2022-10-16T04:16:23.951Z,5.22
2022-10-16T04:18:50.415Z,5.53
2022-10-16T04:21:16.839Z,6.85
2022-10-16T04:23:43.928Z,6.32
2022-10-16T04:26:11.381Z,2.00
2022-10-16T04:28:37.895Z,7.13
2022-10-16T04:31:05.580Z,2.65
2022-10-16T04:33:32.022Z,1.48
2022-10-16T04:35:59.821Z,3.25
2022-10-16T04:38:26.548Z,1.63
2022-10-16T04:40:53.320Z,4.63
2022-10-16T04:43:20.461Z,6.32
2022-10-16T04:45:47.032Z,3.85
2022-10-16T04:48:13.507Z,5.75
2022-10-16T04:50:39.927Z,9.30
2022-10-16T04:53:08.102Z,4.68
2022-10-16T04:55:34.576Z,3.10
2022-10-16T04:58:00.972Z,6.45
2022-10-16T05:00:27.729Z,2.30
2022-10-16T05:02:54.224Z,9.20
2022-10-16T05:05:20.799Z,5.22
2022-10-16T05:07:48.491Z,10.23
2022-10-16T05:10:14.932Z,6.18
2022-10-16T05:12:41.347Z,3.30
2022-10-16T05:15:08.310Z,9.77
2022-10-16T05:17:34.762Z,4.95
2022-10-16T05:20:01.208Z,8.00
2022-10-16T05:22:27.623Z,7.72
2022-10-16T05:24:54.014Z,5.05
2022-10-16T05:27:20.948Z,3.83
2022-10-16T05:29:48.768Z,5.50
2022-10-16T05:32:16.741Z,1.40
2022-10-16T05:34:43.519Z,4.07
2022-10-16T05:37:10.485Z,2.25
2022-10-16T05:39:37.818Z,6.90
2022-10-16T05:42:05.167Z,7.57
2022-10-16T05:44:31.668Z,4.45
2022-10-16T05:46:58.353Z,6.78
2022-10-16T05:49:24.823Z,8.43
2022-10-16T05:51:51.195Z,7.45
2022-10-16T05:54:17.971Z,8.30
2022-10-16T05:56:44.430Z,16.08
2022-10-16T05:59:10.810Z,2.60
2022-10-16T06:01:37.198Z,5.80
2022-10-16T06:04:03.946Z,4.03
2022-10-16T06:06:31.761Z,4.03
2022-10-16T06:08:58.800Z,2.88
2022-10-16T06:11:31.120Z,2.45
2022-10-16T06:13:59.841Z,4.72
2022-10-16T06:16:27.236Z,1.55
2022-10-16T06:18:55.237Z,7.53
2022-10-16T06:21:25.661Z,5.07
2022-10-16T06:23:53.411Z,2.42
2022-10-16T06:26:22.346Z,1.77
2022-10-16T06:28:49.823Z,6.50
2022-10-16T06:31:17.971Z,7.10
2022-10-16T06:33:46.517Z,5.75
2022-10-16T06:36:15.581Z,9.57
2022-10-16T06:38:42.714Z,6.72
2022-10-16T06:41:12.367Z,6.80
2022-10-16T06:43:38.762Z,1.88
2022-10-16T06:46:08.762Z,4.07
2022-10-16T06:48:35.506Z,3.85
2022-10-16T06:53:49.175Z,8.27
2022-10-16T06:58:54.723Z,4.18
2022-10-16T07:01:23.005Z,5.07
2022-10-16T07:03:49.745Z,6.63
2022-10-16T07:06:20.309Z,10.80
2022-10-16T07:08:48.250Z,5.70
2022-10-16T07:11:17.309Z,8.27
2022-10-16T07:13:48.153Z,6.00
2022-10-16T07:16:20.566Z,4.93
2022-10-16T07:18:49.334Z,3.17
2022-10-16T07:21:21.424Z,3.80
2022-10-16T07:23:52.131Z,2.00
2022-10-16T07:26:18.606Z,2.00
2022-10-16T07:28:45.400Z,4.45
2022-10-16T07:31:16.809Z,3.33
2022-10-16T07:33:45.670Z,1.73
2022-10-16T07:36:16.351Z,2.88
2022-10-16T07:38:43.724Z,3.65
2022-10-16T07:41:12.960Z,3.63
2022-10-16T07:43:39.821Z,2.85
2022-10-16T07:46:06.753Z,2.72
2022-10-16T07:48:35.323Z,3.67
2022-10-16T07:51:03.772Z,2.33
2022-10-16T07:53:30.439Z,2.08
2022-10-16T07:56:05.889Z,2.30
2022-10-16T07:58:33.390Z,1.73
2022-10-16T08:01:03.424Z,4.35
2022-10-16T08:03:29.823Z,4.57
2022-10-16T08:05:58.448Z,3.85
2022-10-16T08:08:25.222Z,2.63
2022-10-16T08:10:51.586Z,4.18
2022-10-16T08:13:18.011Z,3.80
2022-10-16T08:15:45.590Z,2.22
2022-10-16T08:18:13.857Z,2.55
2022-10-16T08:20:41.219Z,1.88
2022-10-16T08:23:07.894Z,1.90
2022-10-16T08:25:38.218Z,3.47
2022-10-16T08:28:10.162Z,3.63
2022-10-16T08:30:37.273Z,1.90
2022-10-16T08:33:04.192Z,2.20
2022-10-16T08:35:30.867Z,3.03
2022-10-16T08:37:57.305Z,1.67
2022-10-16T08:40:31.965Z,1.92
2022-10-16T08:43:13.148Z,1.85
2022-10-16T08:48:21.014Z,1.45
2022-10-16T08:50:50.411Z,1.90
2022-10-16T08:53:44.098Z,1.95
2022-10-16T08:56:10.483Z,1.65
2022-10-16T08:58:36.982Z,1.98
2022-10-16T09:01:11.801Z,7.88
2022-10-16T09:04:15.639Z,4.97
2022-10-16T09:07:10.502Z,2.08
2022-10-16T09:10:18.436Z,2.40
2022-10-16T09:12:54.977Z,1.40
2022-10-16T09:15:30.537Z,1.38
2022-10-16T09:18:11.067Z,2.78
2022-10-16T09:20:50.208Z,1.58
2022-10-16T09:23:26.594Z,0.82
2022-10-16T09:25:54.892Z,1.77
2022-10-16T09:28:21.687Z,2.17
2022-10-16T09:30:51.772Z,1.35
2022-10-16T09:33:21.596Z,0.65
2022-10-16T09:35:53.968Z,4.43
2022-10-16T09:38:31.750Z,1.98
2022-10-16T09:41:03.173Z,2.03
2022-10-16T09:43:39.766Z,1.42
2022-10-16T09:46:08.938Z,1.02
2022-10-16T09:48:40.168Z,2.15
2022-10-16T09:51:17.403Z,1.38
2022-10-16T09:53:48.127Z,0.80
2022-10-16T09:56:36.393Z,0.65
2022-10-16T09:59:28.909Z,1.10
2022-10-16T10:01:56.101Z,1.13
2022-10-16T10:04:24.839Z,0.60
2022-10-16T10:06:59.038Z,2.05
2022-10-16T10:09:33.802Z,1.55
2022-10-16T10:14:41.934Z,0.65
2022-10-16T10:17:20.494Z,0.68
2022-10-16T10:19:56.087Z,1.15
2022-10-16T10:22:32.739Z,1.20
2022-10-16T10:25:30.184Z,1.33
2022-10-16T10:28:19.585Z,1.48
2022-10-16T10:30:58.480Z,1.52
2022-10-16T10:33:37.562Z,1.48
2022-10-16T10:36:23.619Z,0.57
2022-10-16T10:38:59.072Z,0.60
2022-10-16T10:41:58.145Z,1.13
2022-10-16T10:44:24.476Z,1.85
2022-10-16T10:47:09.836Z,0.40
2022-10-16T10:49:39.409Z,2.60
2022-10-16T10:52:28.971Z,1.45
2022-10-16T10:55:09.990Z,0.85
2022-10-16T10:57:50.806Z,0.90
2022-10-16T11:00:37.545Z,0.85
2022-10-16T11:03:28.325Z,0.82
2022-10-16T11:06:05.389Z,0.40
2022-10-16T11:08:40.783Z,0.32
2022-10-16T11:11:15.673Z,3.25
2022-10-16T11:13:56.387Z,0.55
2022-10-16T11:16:29.543Z,0.40
2022-10-16T11:19:26.331Z,1.08
2022-10-16T11:22:20.624Z,0.50
2022-10-16T11:24:53.386Z,1.08
2022-10-16T11:27:29.530Z,0.60
2022-10-16T11:30:02.479Z,1.42
2022-10-16T11:32:34.913Z,1.42
2022-10-16T11:35:13.496Z,0.77
2022-10-16T11:37:45.518Z,1.42
2022-10-16T11:40:29.660Z,1.05
2022-10-16T11:43:07.592Z,0.75
2022-10-16T11:45:43.298Z,0.55
2022-10-16T11:48:15.446Z,0.32
2022-10-16T11:50:50.374Z,0.65
2022-10-16T11:53:45.254Z,0.28
2022-10-16T11:56:17.925Z,0.52
2022-10-16T11:59:25.580Z,2.45
2022-10-16T12:02:00.730Z,1.15
2022-10-16T12:05:08.634Z,3.00
2022-10-16T12:07:44.325Z,1.30
2022-10-16T12:10:23.598Z,0.85
2022-10-16T12:12:53.006Z,3.65
2022-10-16T12:15:54.550Z,0.45
2022-10-16T12:18:25.536Z,1.63
2022-10-16T12:21:17.332Z,0.82
2022-10-16T12:23:53.399Z,0.30
2022-10-16T12:26:28.610Z,1.02
2022-10-16T12:28:56.563Z,0.75
2022-10-16T12:31:24.276Z,1.33
2022-10-16T12:33:59.782Z,0.40
2022-10-16T12:36:32.956Z,1.45
2022-10-16T12:39:00.703Z,0.77
2022-10-16T12:41:32.590Z,0.75
2022-10-16T12:44:02.207Z,2.42
2022-10-16T12:46:31.314Z,1.60
2022-10-16T12:49:14.463Z,1.50
2022-10-16T12:51:42.450Z,0.55
2022-10-16T12:54:16.026Z,0.60
2022-10-16T12:57:07.859Z,2.15
2022-10-16T12:59:54.342Z,1.48
2022-10-16T13:02:57.780Z,0.50
2022-10-16T13:05:53.277Z,1.25
2022-10-16T13:08:46.771Z,0.65
2022-10-16T13:11:37.872Z,2.97
2022-10-16T13:14:26.299Z,0.50
2022-10-16T13:17:13.976Z,0.80
2022-10-16T13:19:56.400Z,1.35
2022-10-16T13:22:35.694Z,1.77
2022-10-16T13:25:09.012Z,1.05
2022-10-16T13:27:52.733Z,2.13
2022-10-16T13:30:29.892Z,2.75
2022-10-16T13:33:41.633Z,1.80
2022-10-16T13:36:18.937Z,3.13
2022-10-16T13:38:45.399Z,2.78
2022-10-16T13:41:19.184Z,2.60
2022-10-16T13:43:52.741Z,3.08
2022-10-16T13:46:24.264Z,2.20
2022-10-16T13:49:25.968Z,2.03
2022-10-16T13:52:00.414Z,5.18
2022-10-16T13:54:29.645Z,4.53
2022-10-16T13:57:03.525Z,2.60
2022-10-16T13:59:38.281Z,3.17
2022-10-16T14:02:37.651Z,2.65
2022-10-16T14:05:08.937Z,2.72
2022-10-16T14:07:35.855Z,4.72
2022-10-16T14:10:08.420Z,3.50
2022-10-16T14:12:35.839Z,3.80
2022-10-16T14:15:02.779Z,3.65
2022-10-16T14:17:34.376Z,4.95
2022-10-16T14:20:06.654Z,11.35
2022-10-16T14:22:42.465Z,3.63
2022-10-16T14:25:21.393Z,4.90
2022-10-16T14:28:20.519Z,2.63
2022-10-16T14:30:53.298Z,2.50
2022-10-16T14:33:34.566Z,3.28
2022-10-16T14:36:03.500Z,2.95
2022-10-16T14:38:30.881Z,2.65
2022-10-16T14:40:59.974Z,3.28
2022-10-16T14:43:36.609Z,3.20
2022-10-16T14:46:10.382Z,3.25
2022-10-16T14:48:37.059Z,4.78
2022-10-16T14:51:03.589Z,3.70
2022-10-16T14:53:30.010Z,2.67
2022-10-16T14:55:56.461Z,3.10
2022-10-16T14:58:24.177Z,3.40
2022-10-16T15:00:50.623Z,4.28
2022-10-16T15:03:17.393Z,2.55
2022-10-16T15:05:44.897Z,2.97
2022-10-16T15:08:13.241Z,2.40
2022-10-16T15:10:43.281Z,3.83
2022-10-16T15:13:14.746Z,3.97
2022-10-16T15:15:46.514Z,2.33
2022-10-16T15:18:15.664Z,3.38
2022-10-16T15:20:42.541Z,4.25
2022-10-16T15:23:18.823Z,3.20
2022-10-16T15:25:46.950Z,2.88
2022-10-16T15:28:14.849Z,2.33
2022-10-16T15:30:42.136Z,3.20
2022-10-16T15:33:17.809Z,2.63
2022-10-16T15:35:48.042Z,3.20
2022-10-16T15:38:15.069Z,3.30
2022-10-16T15:40:42.139Z,2.60
2022-10-16T15:43:08.602Z,2.97
2022-10-16T15:45:35.432Z,3.40
2022-10-16T15:48:01.989Z,5.75
2022-10-16T15:50:28.515Z,2.80
2022-10-16T15:52:54.866Z,2.83
2022-10-16T15:55:21.291Z,2.55
2022-10-16T15:57:47.698Z,2.85
2022-10-16T16:00:17.138Z,3.72
2022-10-16T16:02:44.876Z,3.55
2022-10-16T16:05:12.132Z,2.40
2022-10-16T16:07:41.130Z,3.40
2022-10-16T16:10:11.003Z,2.75
2022-10-16T16:12:38.476Z,2.60
2022-10-16T16:15:09.784Z,3.20
2022-10-16T16:17:37.310Z,4.72
2022-10-16T16:20:05.519Z,4.93
2022-10-16T16:22:32.179Z,3.13
2022-10-16T16:24:58.588Z,4.00
2022-10-16T16:27:26.246Z,2.80
2022-10-16T16:29:54.171Z,3.85
2022-10-16T16:32:20.635Z,3.05
2022-10-16T16:34:47.183Z,3.30
2022-10-16T16:37:13.870Z,6.35
2022-10-16T16:39:40.344Z,2.88
2022-10-16T16:42:08.336Z,5.20
2022-10-16T16:44:37.019Z,5.18
2022-10-16T16:47:04.683Z,4.05
2022-10-16T16:49:31.264Z,3.95
2022-10-16T16:51:57.697Z,5.13
2022-10-16T16:54:24.255Z,3.67
2022-10-16T16:56:50.689Z,4.45
2022-10-16T16:59:20.573Z,9.65
2022-10-16T17:01:48.036Z,7.95
2022-10-16T17:04:19.772Z,6.70
2022-10-16T17:06:53.873Z,5.80
2022-10-16T17:09:20.292Z,7.45
2022-10-16T17:11:47.607Z,9.90
2022-10-16T17:14:13.995Z,13.88
2022-10-16T17:16:44.541Z,6.75
2022-10-16T17:19:15.453Z,8.07
2022-10-16T17:21:42.688Z,11.15
2022-10-16T17:24:10.132Z,13.15
2022-10-16T17:26:38.342Z,11.20
2022-10-16T17:29:05.046Z,15.27
2022-10-16T17:31:36.340Z,17.30
2022-10-16T17:34:05.554Z,17.95
2022-10-16T17:36:34.592Z,14.52
2022-10-16T17:39:04.475Z,14.88
2022-10-16T17:41:31.713Z,18.08
2022-10-16T17:43:58.155Z,20.58
2022-10-16T17:46:25.427Z,25.83
2022-10-16T17:48:55.588Z,44.75
2022-10-16T17:51:25.441Z,28.60
2022-10-16T17:53:54.704Z,30.48
2022-10-16T17:56:22.147Z,33.00
2022-10-16T17:58:54.289Z,32.83
2022-10-16T18:01:24.143Z,17.10
2022-10-16T18:03:52.503Z,19.00
2022-10-16T18:06:22.698Z,16.70
2022-10-16T18:08:50.846Z,17.17
2022-10-16T18:11:17.373Z,23.70
2022-10-16T18:13:44.531Z,20.00
2022-10-16T18:16:12.847Z,28.88
2022-10-16T18:18:41.046Z,14.20
2022-10-16T18:21:09.455Z,12.68
2022-10-16T18:23:36.768Z,18.05
2022-10-16T18:26:05.348Z,13.15
2022-10-16T18:28:32.375Z,20.60
2022-10-16T18:31:06.923Z,17.77
2022-10-16T18:33:33.716Z,16.20
2022-10-16T18:36:05.474Z,13.70
2022-10-16T18:38:32.834Z,17.05
2022-10-16T18:41:01.827Z,9.90
2022-10-16T18:43:30.406Z,21.90
2022-10-16T18:45:58.586Z,11.95
2022-10-16T18:48:25.624Z,14.18
2022-10-16T18:50:52.970Z,24.45
2022-10-16T18:53:19.907Z,15.02
2022-10-16T18:55:53.241Z,21.35
2022-10-16T18:58:20.369Z,20.70
2022-10-16T19:00:47.068Z,19.95
2022-10-16T19:03:13.577Z,15.63
2022-10-16T19:05:40.160Z,19.55
2022-10-16T19:08:06.685Z,16.20
2022-10-16T19:10:36.953Z,23.70
2022-10-16T19:13:06.359Z,13.33
2022-10-16T19:15:42.810Z,22.30
2022-10-16T19:18:11.080Z,26.98
2022-10-16T19:20:37.551Z,10.10
2022-10-16T19:23:04.180Z,13.15
2022-10-16T19:25:30.766Z,13.57
2022-10-16T19:27:57.329Z,18.70
2022-10-16T19:30:25.265Z,22.90
2022-10-16T19:32:53.010Z,19.77
2022-10-16T19:35:19.717Z,17.35
2022-10-16T19:37:50.106Z,16.83
2022-10-16T19:40:16.691Z,15.60
2022-10-16T19:42:45.093Z,11.65
2022-10-16T19:45:12.085Z,15.35
2022-10-16T19:47:38.773Z,13.65
2022-10-16T19:50:06.545Z,27.13
2022-10-16T19:52:33.680Z,13.23
2022-10-16T19:55:00.135Z,21.90
2022-10-16T19:57:27.000Z,17.25
2022-10-16T19:59:54.421Z,17.40
2022-10-16T20:02:21.388Z,24.98
2022-10-16T20:04:47.897Z,19.42
2022-10-16T20:07:15.879Z,13.30
2022-10-16T20:09:42.472Z,12.15
2022-10-16T20:12:08.977Z,23.00
2022-10-16T20:14:35.662Z,17.60
2022-10-16T20:17:02.342Z,16.33
2022-10-16T20:19:28.970Z,16.48
2022-10-16T20:21:55.762Z,11.52
2022-10-16T20:24:22.363Z,17.33
2022-10-16T20:26:48.869Z,17.52
2022-10-16T20:29:15.665Z,15.07
2022-10-16T20:31:42.234Z,17.50
2022-10-16T20:34:11.504Z,17.27
2022-10-16T20:36:42.657Z,15.30
2022-10-16T20:41:36.337Z,15.68
2022-10-16T20:44:03.854Z,18.30
2022-10-16T20:46:30.493Z,19.63
2022-10-16T20:49:06.042Z,19.15
2022-10-16T20:51:38.241Z,12.55
2022-10-16T20:54:06.319Z,23.85
2022-10-16T20:56:35.208Z,19.95
2022-10-16T20:59:02.145Z,17.48
2022-10-16T21:01:29.841Z,12.98
2022-10-16T21:04:02.011Z,11.02
2022-10-16T21:06:29.527Z,15.25
2022-10-16T21:08:56.231Z,21.88
2022-10-16T21:11:27.156Z,15.35
2022-10-16T21:13:56.237Z,16.75
2022-10-16T21:16:23.511Z,16.25
2022-10-16T21:18:50.434Z,8.57
2022-10-16T21:21:26.138Z,16.25
2022-10-16T21:23:53.102Z,19.00
2022-10-16T21:26:25.839Z,16.20
2022-10-16T21:29:00.776Z,24.67
2022-10-16T21:31:27.744Z,14.77
2022-10-16T21:33:55.234Z,13.60
2022-10-16T21:36:26.633Z,13.73
2022-10-16T21:38:53.709Z,13.85
2022-10-16T21:41:26.634Z,10.77
2022-10-16T21:43:54.718Z,18.63
2022-10-16T21:46:25.139Z,16.92
2022-10-16T21:48:55.625Z,9.45
2022-10-16T21:51:27.533Z,10.45
2022-10-16T21:53:54.730Z,10.50
2022-10-16T21:56:21.822Z,9.68
2022-10-16T21:58:48.286Z,13.95
2022-10-16T22:01:19.945Z,7.55
2022-10-16T22:03:47.472Z,17.77
2022-10-16T22:06:16.856Z,13.02
2022-10-16T22:08:43.894Z,20.83
2022-10-16T22:11:23.209Z,14.27
2022-10-16T22:13:54.260Z,12.48
2022-10-16T22:16:25.427Z,18.77
2022-10-16T22:18:53.516Z,19.83
2022-10-16T22:21:20.188Z,15.07
2022-10-16T22:23:46.806Z,9.23
2022-10-16T22:26:13.211Z,15.45
2022-10-16T22:28:40.690Z,11.05
2022-10-16T22:31:10.051Z,7.93
2022-10-16T22:33:36.681Z,14.88
2022-10-16T22:36:05.193Z,16.83
2022-10-16T22:38:33.381Z,11.57
2022-10-16T22:41:05.130Z,13.13
2022-10-16T22:43:34.394Z,9.32
2022-10-16T22:46:05.814Z,13.32
2022-10-16T22:48:32.253Z,15.38
2022-10-16T22:50:58.665Z,13.50
2022-10-16T22:53:25.076Z,13.93
2022-10-16T22:55:51.736Z,22.75
2022-10-16T22:58:18.441Z,18.13
2022-10-16T23:00:45.348Z,32.70
2022-10-16T23:03:12.146Z,27.40
2022-10-16T23:05:40.109Z,29.98
2022-10-16T23:08:07.127Z,23.00
2022-10-16T23:10:34.723Z,21.90
2022-10-16T23:13:01.092Z,36.95
2022-10-16T23:15:27.473Z,35.30
2022-10-16T23:17:53.853Z,21.55
2022-10-16T23:20:20.271Z,21.77
2022-10-16T23:22:46.754Z,28.08
2022-10-16T23:25:13.163Z,39.17
2022-10-16T23:27:39.563Z,28.98
2022-10-16T23:30:06.866Z,22.83
2022-10-16T23:32:34.047Z,24.05
2022-10-16T23:35:00.589Z,17.73
2022-10-16T23:37:27.110Z,15.70
2022-10-16T23:39:54.007Z,28.27
2022-10-16T23:42:20.618Z,14.63
2022-10-16T23:44:47.225Z,16.98
2022-10-16T23:47:13.602Z,17.02
2022-10-16T23:49:39.974Z,18.08
2022-10-16T23:52:07.114Z,16.75
2022-10-16T23:54:33.547Z,20.42
2022-10-16T23:57:00.137Z,19.95
2022-10-16T23:59:26.538Z,17.33
